createdAt,value
2019-03-18T00:01:01.282Z,0.2
2019-03-18T00:16:01.297Z,0.2
2019-03-18T00:31:01.353Z,0.2
2019-03-18T00:46:01.368Z,0.3
2019-03-18T01:01:01.356Z,0.4
2019-03-18T01:06:01.423Z,0.4
2019-03-18T01:16:01.309Z,0.3
2019-03-18T01:21:01.301Z,0.2
2019-03-18T01:36:01.392Z,0.4
2019-03-18T01:41:01.373Z,0.4
2019-03-18T01:56:01.456Z,0.3
2019-03-18T02:07:01.354Z,0.3
2019-03-18T02:22:01.327Z,0.6
2019-03-18T02:32:01.332Z,0.6
2019-03-18T02:37:01.282Z,0.5
2019-03-18T02:42:01.276Z,0.3
2019-03-18T02:57:01.361Z,0.3
2019-03-18T03:02:01.290Z,0.3
2019-03-18T03:17:01.405Z,0.4
2019-03-18T03:22:01.272Z,0.8
2019-03-18T03:32:01.435Z,1.0
2019-03-18T03:37:01.334Z,0.9
2019-03-18T03:42:01.260Z,0.9
2019-03-18T03:47:01.420Z,0.8
2019-03-18T03:52:01.270Z,0.8
2019-03-18T03:57:01.365Z,0.8
2019-03-18T04:02:01.294Z,1.0
2019-03-18T04:07:01.369Z,0.9
2019-03-18T04:17:03.113Z,0.7
2019-03-18T04:22:01.305Z,0.4
2019-03-18T04:32:01.297Z,0.4
2019-03-18T04:47:14.697Z,0.5
2019-03-18T05:02:01.271Z,0.3
2019-03-18T05:07:01.369Z,0.3
2019-03-18T05:17:01.367Z,0.3
2019-03-18T05:23:01.407Z,0.8
2019-03-18T05:28:01.810Z,0.7
2019-03-18T05:33:01.364Z,0.9
2019-03-18T05:38:01.304Z,0.8
2019-03-18T05:43:01.361Z,0.5
2019-03-18T05:48:01.259Z,0.5
2019-03-18T05:53:01.426Z,0.2
2019-03-18T05:58:01.280Z,0.2
2019-03-18T06:03:01.381Z,0.2
2019-03-18T06:13:01.358Z,0.2
2019-03-18T06:28:01.346Z,0.3
2019-03-18T06:33:01.287Z,0.8
2019-03-18T06:38:01.300Z,0.7
2019-03-18T06:43:01.365Z,0.8
2019-03-18T06:48:05.686Z,0.7
2019-03-18T06:53:01.305Z,0.5
2019-03-18T07:03:01.415Z,0.7
2019-03-18T07:08:03.222Z,0.7
2019-03-18T07:13:01.357Z,0.9
2019-03-18T07:18:01.429Z,0.9
2019-03-18T07:23:01.366Z,1.3
2019-03-18T07:28:01.311Z,1.2
2019-03-18T07:38:01.393Z,1.2
2019-03-18T07:48:01.288Z,0.9
2019-03-18T07:53:01.355Z,1.5
2019-03-18T07:58:01.294Z,1.6
2019-03-18T08:03:03.753Z,1.3
2019-03-18T08:08:01.267Z,1.4
2019-03-18T08:13:01.295Z,1.5
2019-03-18T08:23:01.274Z,1.9
2019-03-18T08:28:01.301Z,2.0
2019-03-18T08:33:01.385Z,1.7
2019-03-18T08:43:01.321Z,0.6
2019-03-18T08:49:01.290Z,0.8
2019-03-18T08:54:01.297Z,0.8
2019-03-18T08:59:06.283Z,1.6
2019-03-18T09:04:01.336Z,1.4
2019-03-18T09:19:09.367Z,0.5
2019-03-18T09:24:02.333Z,0.5
2019-03-18T09:29:01.309Z,0.8
2019-03-18T09:34:01.358Z,1.0
2019-03-18T09:39:01.323Z,2.3
2019-03-18T09:44:01.429Z,2.6
2019-03-18T09:49:01.293Z,3.2
2019-03-18T09:54:01.277Z,3.4
2019-03-18T09:59:01.394Z,3.1
2019-03-18T10:04:01.433Z,2.5
2019-03-18T10:09:01.320Z,2.2
2019-03-18T10:14:01.363Z,2.2
2019-03-18T10:19:01.307Z,1.8
2019-03-18T10:29:01.393Z,2.7
2019-03-18T10:34:01.452Z,2.6
2019-03-18T10:49:01.401Z,2.9
2019-03-18T10:54:01.300Z,3.0
2019-03-18T10:59:01.340Z,3.6
2019-03-18T11:04:01.443Z,3.5
2019-03-18T11:09:01.309Z,3.7
2019-03-18T11:14:01.296Z,3.7
2019-03-18T11:19:01.339Z,3.6
2019-03-18T11:24:01.460Z,3.4
2019-03-18T11:34:01.348Z,3.8
2019-03-18T11:39:01.299Z,2.3
2019-03-18T11:44:01.430Z,2.3
2019-03-18T11:49:01.274Z,1.4
2019-03-18T11:54:01.396Z,1.3
2019-03-18T11:59:01.310Z,1.0
2019-03-18T12:04:01.350Z,1.0
2019-03-18T12:09:01.260Z,0.7
2019-03-18T12:14:01.301Z,0.7
2019-03-18T12:19:01.283Z,2.6
2019-03-18T12:24:01.306Z,2.4
2019-03-18T12:29:01.301Z,3.5
2019-03-18T12:34:01.462Z,3.1
2019-03-18T12:39:01.279Z,3.3
2019-03-18T12:44:01.317Z,3.4
2019-03-18T12:49:01.298Z,3.6
2019-03-18T12:59:01.452Z,4.3
2019-03-18T13:04:01.269Z,4.4
2019-03-18T13:09:01.299Z,4.2
2019-03-18T13:14:01.458Z,4.0
2019-03-18T13:19:01.302Z,4.2
2019-03-18T13:34:01.840Z,3.9
2019-03-18T13:49:01.377Z,3.9
2019-03-18T13:59:01.358Z,4.1
2019-03-18T14:04:06.429Z,4.4
2019-03-18T14:09:01.309Z,3.7
2019-03-18T14:14:01.312Z,3.5
2019-03-18T14:19:01.431Z,2.7
2019-03-18T14:24:01.358Z,2.6
2019-03-18T14:29:01.364Z,3.3
2019-03-18T14:34:01.297Z,3.2
2019-03-18T14:44:01.384Z,3.4
2019-03-18T14:49:01.329Z,4.1
2019-03-18T14:54:01.367Z,3.9
2019-03-18T14:59:01.438Z,3.9
2019-03-18T15:04:01.308Z,3.7
2019-03-18T15:09:01.294Z,3.9
2019-03-18T15:14:01.932Z,3.8
2019-03-18T15:19:01.309Z,4.0
2019-03-18T15:29:01.358Z,3.9
2019-03-18T15:34:01.346Z,3.9
2019-03-18T15:39:01.288Z,4.3
2019-03-18T15:44:01.467Z,4.0
2019-03-18T15:49:01.308Z,4.0
2019-03-18T15:59:01.415Z,4.3
2019-03-18T16:04:01.425Z,4.0
2019-03-18T16:09:01.252Z,4.2
2019-03-18T16:14:01.339Z,4.4
2019-03-18T16:19:02.302Z,4.2
2019-03-18T16:24:01.263Z,4.5
2019-03-18T16:29:01.256Z,3.9
2019-03-18T16:34:01.355Z,4.3
2019-03-18T16:39:01.271Z,4.0
2019-03-18T16:44:01.306Z,4.3
2019-03-18T16:49:01.248Z,4.0
2019-03-18T16:54:01.364Z,4.0
2019-03-18T16:59:01.271Z,3.8
2019-03-18T17:04:01.301Z,3.7
2019-03-18T17:09:01.288Z,3.8
2019-03-18T17:14:01.294Z,4.3
2019-03-18T17:19:01.294Z,4.4
2019-03-18T17:24:01.426Z,4.9
2019-03-18T17:29:01.278Z,4.9
2019-03-18T17:34:01.314Z,4.5
2019-03-18T17:39:01.302Z,4.3
2019-03-18T17:49:01.407Z,3.8
2019-03-18T17:59:01.354Z,4.3
2019-03-18T18:09:01.357Z,4.3
2019-03-18T18:14:01.296Z,4.1
2019-03-18T18:19:01.265Z,3.8
2019-03-18T18:24:01.430Z,3.6
2019-03-18T18:29:01.265Z,3.8
2019-03-18T18:39:01.362Z,3.9
2019-03-18T18:44:01.386Z,3.6
2019-03-18T18:49:01.268Z,3.7
2019-03-18T18:54:01.366Z,3.4
2019-03-18T18:59:01.270Z,3.5
2019-03-18T19:04:01.329Z,3.3
2019-03-18T19:09:01.449Z,3.2
2019-03-18T19:14:01.356Z,3.5
2019-03-18T19:19:01.267Z,3.6
2019-03-18T19:24:01.357Z,3.3
2019-03-18T19:29:01.268Z,3.6
2019-03-18T19:34:01.399Z,3.7
2019-03-18T19:39:01.260Z,3.5
2019-03-18T19:44:01.536Z,3.4
2019-03-18T19:49:01.286Z,3.3
2019-03-18T19:54:01.338Z,3.2
2019-03-18T19:59:01.301Z,3.4
2019-03-18T20:04:01.355Z,3.6
2019-03-18T20:09:01.413Z,3.4
2019-03-18T20:14:01.303Z,3.5
2019-03-18T20:19:01.274Z,3.2
2019-03-18T20:24:04.565Z,2.8
2019-03-18T20:29:02.312Z,3.0
2019-03-18T20:34:01.465Z,3.0
2019-03-18T20:44:01.259Z,3.2
2019-03-18T20:49:01.276Z,3.4
2019-03-18T20:54:12.507Z,3.2
2019-03-18T20:59:01.318Z,3.3
2019-03-18T21:09:01.424Z,3.0
2019-03-18T21:19:01.367Z,2.8
2019-03-18T21:29:01.338Z,2.9
2019-03-18T21:34:01.350Z,2.8
2019-03-18T21:39:01.293Z,2.9
2019-03-18T21:44:01.362Z,2.8
2019-03-18T21:49:01.296Z,2.8
2019-03-18T21:54:01.438Z,2.7
2019-03-18T21:59:02.244Z,3.2
2019-03-18T22:04:01.409Z,3.1
2019-03-18T22:09:01.275Z,2.9
2019-03-18T22:14:01.375Z,3.0
2019-03-18T22:19:01.255Z,3.0
2019-03-18T22:24:01.358Z,2.6
2019-03-18T22:29:01.262Z,2.8
2019-03-18T22:34:01.299Z,2.9
2019-03-18T22:39:01.299Z,2.7
2019-03-18T22:44:01.483Z,2.4
2019-03-18T22:54:01.530Z,2.2
2019-03-18T22:59:01.271Z,2.2
2019-03-18T23:09:01.372Z,2.1
2019-03-18T23:14:01.358Z,1.9
2019-03-18T23:19:01.262Z,2.0
2019-03-18T23:24:01.367Z,1.6
2019-03-18T23:29:01.296Z,1.7
2019-03-18T23:34:01.403Z,1.7
2019-03-18T23:44:01.373Z,1.5
2019-03-18T23:50:01.263Z,1.9
2019-03-18T23:55:01.297Z,1.9
